Weather at Gmunden-Laakirchen Airfield

Public forecast

Using degrees Celsius for public forecast. Weather courtesy of forecast.io.

Closest aviation weather report (METAR) to Gmunden-Laakirchen Airfield

Closest report is Linz-Hörsching Airport / Vogler Air Base, 21.2 nm (39.3 km) NE.

2022/12/03 15:20 (retrieved 39 minutes ago)

LOWL 031520Z AUTO 10004KT 9999 SCT017 03/01 Q1017 NOSIG

Closest aviation forecast (TAF) to Gmunden-Laakirchen Airfield

Closest forecast is Linz-Hörsching Airport / Vogler Air Base, 21.2 nm (39.3 km) NE.

2022/12/03 13:39 Ammendment (retrieved 2 hours ago)

AMD LOWL 031330Z 0313/0412 08010KT 9999 BKN011 TX07/0412Z TN03/0313Z BECMG 0314/0316 SCT010 PROB30 0316/0403 BKN010 TEMPO 0403/0409 BKN004 BECMG 0410/0412 09015G25KT